createdAt,value
2017-12-30T00:00:30.067Z,96.84
2017-12-30T00:03:04.955Z,97.25
2017-12-30T00:05:39.490Z,97.21
2017-12-30T00:08:14.342Z,97.22
2017-12-30T00:10:49.668Z,97.28
2017-12-30T00:13:24.863Z,97.22
2017-12-30T00:15:59.684Z,97.22
2017-12-30T00:18:34.139Z,97.27
2017-12-30T00:21:08.919Z,97.29
2017-12-30T00:23:43.829Z,97.45
2017-12-30T00:26:18.926Z,97.48
2017-12-30T00:28:54.115Z,97.43
2017-12-30T00:31:28.627Z,97.48
2017-12-30T00:34:03.065Z,97.48
2017-12-30T00:36:38.211Z,97.55
2017-12-30T00:39:13.140Z,97.74
2017-12-30T00:41:48.525Z,97.80
2017-12-30T00:44:23.788Z,97.83
2017-12-30T00:46:58.782Z,97.85
2017-12-30T00:49:33.698Z,97.83
2017-12-30T00:52:08.700Z,97.85
2017-12-30T00:54:43.677Z,97.89
2017-12-30T00:57:18.280Z,97.90
2017-12-30T00:59:53.426Z,97.96
2017-12-30T01:02:28.463Z,97.93
2017-12-30T01:05:03.419Z,97.87
2017-12-30T01:07:38.526Z,97.76
2017-12-30T01:10:13.496Z,97.55
2017-12-30T01:12:48.376Z,97.48
2017-12-30T01:15:23.104Z,97.31
2017-12-30T01:17:58.169Z,97.15
2017-12-30T01:20:33.256Z,96.91
2017-12-30T01:23:08.352Z,96.59
2017-12-30T01:25:43.536Z,96.32
2017-12-30T01:28:18.631Z,96.31
2017-12-30T01:30:54.080Z,96.22
2017-12-30T01:33:29.068Z,96.02
2017-12-30T01:36:04.290Z,95.84
2017-12-30T01:38:39.288Z,95.56
2017-12-30T01:41:14.274Z,95.20
2017-12-30T01:43:49.447Z,95.04
2017-12-30T01:46:24.592Z,94.88
2017-12-30T01:49:03.743Z,94.47
2017-12-30T01:51:38.719Z,94.25
2017-12-30T01:54:13.758Z,94.25
2017-12-30T01:56:48.846Z,94.03
2017-12-30T01:59:23.667Z,93.82
2017-12-30T02:01:58.484Z,93.65
2017-12-30T02:04:33.447Z,93.61
2017-12-30T02:07:08.663Z,93.65
2017-12-30T02:09:43.504Z,93.60
2017-12-30T02:12:18.420Z,93.54
2017-12-30T02:14:52.955Z,93.40
2017-12-30T02:17:27.904Z,93.32
2017-12-30T02:20:02.722Z,93.15
2017-12-30T02:22:37.755Z,93.10
2017-12-30T02:25:12.684Z,92.90
2017-12-30T02:27:47.515Z,92.87
2017-12-30T02:30:22.253Z,92.74
2017-12-30T02:32:57.300Z,92.60
2017-12-30T02:35:32.543Z,92.66
2017-12-30T02:38:07.382Z,92.78
2017-12-30T02:40:42.272Z,92.62
2017-12-30T02:43:17.406Z,92.49
2017-12-30T02:45:52.638Z,92.41
2017-12-30T02:48:27.559Z,92.36
2017-12-30T02:51:02.122Z,92.14
2017-12-30T02:53:37.527Z,92.01
2017-12-30T02:56:12.721Z,92.03
2017-12-30T02:58:47.851Z,91.86
2017-12-30T03:01:23.090Z,91.74
2017-12-30T03:03:57.518Z,91.80
2017-12-30T03:06:32.520Z,91.89
2017-12-30T03:09:07.592Z,91.84
2017-12-30T03:11:42.629Z,91.83
2017-12-30T03:14:17.554Z,91.73
2017-12-30T03:16:52.475Z,91.86
2017-12-30T03:19:27.212Z,91.92
2017-12-30T03:22:01.799Z,91.80
2017-12-30T03:24:36.686Z,91.57
2017-12-30T03:27:11.595Z,91.68
2017-12-30T03:29:46.639Z,91.62
2017-12-30T03:32:21.343Z,91.49
2017-12-30T03:34:56.224Z,91.32
2017-12-30T03:37:31.035Z,91.04
2017-12-30T03:40:05.971Z,90.97
2017-12-30T03:42:40.883Z,90.81
2017-12-30T03:45:15.940Z,90.62
2017-12-30T03:47:50.287Z,90.58
2017-12-30T03:50:25.263Z,90.44
2017-12-30T03:52:59.699Z,90.50
2017-12-30T03:55:34.791Z,90.45
2017-12-30T03:58:10.205Z,90.48
2017-12-30T04:00:45.287Z,90.43
2017-12-30T04:03:20.366Z,90.64
2017-12-30T04:05:55.283Z,90.73
2017-12-30T04:08:30.343Z,90.76
2017-12-30T04:11:05.111Z,90.85
2017-12-30T04:13:40.288Z,90.64
2017-12-30T04:16:15.216Z,90.59
2017-12-30T04:18:50.492Z,90.63
2017-12-30T04:21:25.192Z,90.52
2017-12-30T04:24:00.342Z,90.60
2017-12-30T04:26:35.381Z,90.65
2017-12-30T04:29:10.289Z,90.23
2017-12-30T04:31:45.052Z,90.14
2017-12-30T04:34:19.774Z,90.01
2017-12-30T04:36:54.791Z,89.90
2017-12-30T04:39:29.759Z,89.93
2017-12-30T04:42:04.782Z,89.86
2017-12-30T04:44:39.752Z,89.74
2017-12-30T04:47:14.870Z,89.64
2017-12-30T04:49:49.823Z,89.77
2017-12-30T04:52:24.632Z,89.52
2017-12-30T04:54:59.679Z,89.35
2017-12-30T04:57:34.559Z,89.20
2017-12-30T05:00:09.515Z,89.25
2017-12-30T05:02:44.728Z,89.30
2017-12-30T05:05:19.819Z,89.30
2017-12-30T05:07:54.971Z,89.36
2017-12-30T05:10:30.082Z,89.29
2017-12-30T05:13:05.203Z,89.27
2017-12-30T05:15:40.652Z,89.42
2017-12-30T05:18:15.651Z,89.14
2017-12-30T05:20:50.543Z,89.13
2017-12-30T05:23:25.847Z,88.99
2017-12-30T05:26:00.720Z,88.77
2017-12-30T05:28:37.067Z,88.84
2017-12-30T05:31:12.299Z,88.84
2017-12-30T05:33:47.312Z,88.70
2017-12-30T05:36:22.380Z,88.80
2017-12-30T05:38:57.296Z,88.51
2017-12-30T05:41:32.331Z,88.48
2017-12-30T05:44:07.125Z,88.38
2017-12-30T05:46:42.418Z,87.85
2017-12-30T05:49:17.312Z,87.76
2017-12-30T05:51:51.995Z,87.89
2017-12-30T05:54:26.804Z,87.79
2017-12-30T05:57:01.223Z,87.81
2017-12-30T05:59:36.317Z,87.91
2017-12-30T06:02:11.241Z,87.81
2017-12-30T06:04:46.122Z,87.58
2017-12-30T06:07:20.964Z,87.40
2017-12-30T06:09:56.165Z,87.34
2017-12-30T06:12:31.172Z,87.33
2017-12-30T06:15:05.962Z,87.27
2017-12-30T06:17:40.674Z,87.50
2017-12-30T06:20:15.312Z,87.47
2017-12-30T06:22:50.555Z,87.12
2017-12-30T06:25:25.602Z,87.11
2017-12-30T06:28:00.420Z,87.12
2017-12-30T06:30:35.262Z,87.16
2017-12-30T06:33:09.678Z,87.30
2017-12-30T06:35:44.186Z,87.09
2017-12-30T06:38:19.087Z,86.65
2017-12-30T06:40:54.204Z,86.65
2017-12-30T06:43:29.173Z,86.80
2017-12-30T06:46:04.880Z,86.83
2017-12-30T06:48:39.878Z,87.05
2017-12-30T06:51:14.440Z,87.08
2017-12-30T06:53:49.046Z,87.15
2017-12-30T06:56:23.990Z,86.91
2017-12-30T06:58:59.480Z,86.59
2017-12-30T07:01:34.672Z,86.87
2017-12-30T07:04:10.031Z,86.50
2017-12-30T07:06:44.727Z,86.43
2017-12-30T07:09:19.682Z,86.32
2017-12-30T07:11:54.283Z,86.35
2017-12-30T07:14:29.174Z,86.21
2017-12-30T07:17:03.656Z,86.16
2017-12-30T07:19:38.892Z,85.80
2017-12-30T07:22:13.748Z,85.99
2017-12-30T07:24:48.954Z,86.00
2017-12-30T07:27:23.818Z,85.88
2017-12-30T07:29:58.471Z,85.82
2017-12-30T07:32:33.580Z,85.73
2017-12-30T07:35:08.605Z,85.59
2017-12-30T07:37:43.295Z,85.51
2017-12-30T07:40:18.259Z,85.43
2017-12-30T07:42:53.062Z,85.37
2017-12-30T07:45:27.886Z,85.14
2017-12-30T07:48:03.132Z,85.18
2017-12-30T07:50:38.174Z,85.51
2017-12-30T07:53:13.066Z,85.54
2017-12-30T07:55:48.203Z,85.62
2017-12-30T07:58:23.391Z,85.69
2017-12-30T08:00:58.207Z,85.60
2017-12-30T08:03:33.075Z,85.63
2017-12-30T08:06:07.768Z,85.58
2017-12-30T08:08:42.452Z,85.49
2017-12-30T08:11:17.259Z,85.66
2017-12-30T08:13:53.864Z,86.40
2017-12-30T08:16:28.339Z,86.79
2017-12-30T08:19:03.110Z,87.41
2017-12-30T08:21:38.076Z,87.89
2017-12-30T08:24:12.851Z,87.82
2017-12-30T08:26:47.572Z,88.04
2017-12-30T08:29:22.288Z,88.41
2017-12-30T08:31:56.936Z,88.62
2017-12-30T08:34:32.047Z,88.75
2017-12-30T08:37:07.302Z,89.38
2017-12-30T08:39:42.269Z,89.70
2017-12-30T08:42:17.292Z,90.33
2017-12-30T08:44:52.350Z,90.93
2017-12-30T08:47:27.214Z,91.93
2017-12-30T08:50:02.217Z,92.57
2017-12-30T08:52:37.099Z,92.82
2017-12-30T08:55:12.348Z,93.73
2017-12-30T08:57:47.279Z,94.47
2017-12-30T09:00:22.720Z,94.99
2017-12-30T09:02:57.755Z,95.39
2017-12-30T09:05:32.732Z,95.40
2017-12-30T09:08:07.676Z,95.74
2017-12-30T09:10:42.803Z,96.16
2017-12-30T09:13:17.772Z,96.82
2017-12-30T09:15:52.560Z,96.91
2017-12-30T09:18:27.680Z,97.12
2017-12-30T09:21:02.452Z,97.29
2017-12-30T09:23:37.235Z,97.55
2017-12-30T09:26:12.375Z,97.78
2017-12-30T09:28:46.987Z,98.13
2017-12-30T09:31:21.761Z,98.41
2017-12-30T09:33:56.482Z,98.38
2017-12-30T09:36:31.319Z,98.67
2017-12-30T09:39:05.800Z,98.91
2017-12-30T09:41:40.882Z,99.22
2017-12-30T09:44:16.204Z,99.46
2017-12-30T09:46:51.319Z,99.54
2017-12-30T09:49:25.763Z,99.54
2017-12-30T09:52:00.615Z,99.39
2017-12-30T09:54:35.838Z,98.95
2017-12-30T09:57:10.707Z,98.54
2017-12-30T09:59:45.986Z,98.17
2017-12-30T10:02:20.827Z,98.41
2017-12-30T10:04:55.476Z,98.58
2017-12-30T10:07:30.312Z,98.63
2017-12-30T10:10:04.819Z,98.56
2017-12-30T10:12:39.475Z,98.81
2017-12-30T10:15:14.291Z,99.04
2017-12-30T10:17:49.199Z,99.21
2017-12-30T10:20:24.044Z,99.04
2017-12-30T10:22:58.986Z,98.87
2017-12-30T10:25:34.299Z,98.71
2017-12-30T10:28:09.057Z,98.50
2017-12-30T10:30:43.866Z,98.77
2017-12-30T10:33:18.716Z,99.19
2017-12-30T10:35:53.611Z,99.71
2017-12-30T10:38:28.380Z,99.73
2017-12-30T10:41:03.088Z,99.71
2017-12-30T10:43:37.819Z,99.85
2017-12-30T10:46:12.547Z,100.00
2017-12-30T10:48:47.224Z,100.00
2017-12-30T10:51:21.939Z,100.00
2017-12-30T10:53:56.812Z,100.00
2017-12-30T10:56:31.462Z,100.00
2017-12-30T10:59:06.099Z,100.00
2017-12-30T11:01:40.923Z,100.00
2017-12-30T11:04:15.557Z,100.00
2017-12-30T11:06:50.223Z,100.00
2017-12-30T11:09:24.920Z,100.00
2017-12-30T11:11:59.776Z,100.00
2017-12-30T11:14:34.657Z,100.00
2017-12-30T11:17:09.415Z,100.00
2017-12-30T11:19:44.332Z,100.00
2017-12-30T11:22:18.992Z,100.00
2017-12-30T11:24:53.891Z,100.00
2017-12-30T11:27:28.803Z,100.00
2017-12-30T11:30:03.572Z,100.00
2017-12-30T11:32:38.332Z,100.00
2017-12-30T11:35:13.523Z,100.00
2017-12-30T11:37:48.283Z,100.00
2017-12-30T11:40:23.092Z,100.00
2017-12-30T11:42:57.912Z,100.00
2017-12-30T11:45:32.684Z,100.00
2017-12-30T11:48:07.463Z,100.00
2017-12-30T11:50:42.196Z,100.00
2017-12-30T11:53:17.118Z,100.00
2017-12-30T11:55:51.799Z,100.00
2017-12-30T11:58:26.487Z,100.00
2017-12-30T12:01:01.147Z,100.00
2017-12-30T12:03:36.238Z,100.00
2017-12-30T12:06:11.183Z,100.00
2017-12-30T12:08:46.004Z,100.00
2017-12-30T12:11:21.154Z,100.00
2017-12-30T12:13:56.082Z,100.00
2017-12-30T12:16:30.853Z,100.00
2017-12-30T12:19:05.444Z,100.00
2017-12-30T12:21:40.231Z,100.00
2017-12-30T12:24:14.943Z,100.00
2017-12-30T12:26:49.848Z,100.00
2017-12-30T12:29:24.625Z,100.00
2017-12-30T12:31:59.312Z,100.00
2017-12-30T12:34:34.052Z,100.00
2017-12-30T12:37:08.851Z,100.00
2017-12-30T12:39:43.653Z,100.00
2017-12-30T12:42:18.522Z,100.00
2017-12-30T12:44:53.340Z,100.00
2017-12-30T12:47:28.067Z,100.00
2017-12-30T12:50:03.028Z,100.00
2017-12-30T12:52:37.786Z,100.00
2017-12-30T12:55:12.595Z,100.00
2017-12-30T12:57:47.500Z,100.00
2017-12-30T13:00:22.251Z,100.00
2017-12-30T13:02:57.079Z,100.00
2017-12-30T13:05:31.815Z,100.00
2017-12-30T13:08:06.783Z,100.00
2017-12-30T13:10:41.675Z,100.00
2017-12-30T13:13:16.675Z,100.00
2017-12-30T13:15:51.432Z,100.00
2017-12-30T13:18:26.576Z,100.00
2017-12-30T13:21:01.388Z,100.00
2017-12-30T13:23:36.228Z,100.00
2017-12-30T13:26:11.328Z,100.00
2017-12-30T13:28:46.292Z,100.00
2017-12-30T13:31:21.160Z,100.00
2017-12-30T13:33:56.017Z,100.00
2017-12-30T13:36:30.886Z,100.00
2017-12-30T13:39:05.092Z,100.00
2017-12-30T13:41:40.408Z,100.00
2017-12-30T13:44:15.497Z,100.00
2017-12-30T13:46:50.585Z,100.00
2017-12-30T13:49:25.679Z,100.00
2017-12-30T13:52:00.619Z,100.00
2017-12-30T13:54:35.718Z,100.00
2017-12-30T13:57:10.626Z,100.00
2017-12-30T13:59:45.727Z,100.00
2017-12-30T14:02:20.735Z,100.00
2017-12-30T14:04:55.591Z,100.00
2017-12-30T14:07:30.383Z,100.00
2017-12-30T14:10:05.451Z,100.00
2017-12-30T14:12:40.468Z,100.00
2017-12-30T14:15:15.304Z,100.00
2017-12-30T14:17:50.339Z,100.00
2017-12-30T14:20:25.163Z,100.00
2017-12-30T14:23:00.106Z,100.00
2017-12-30T14:25:35.163Z,100.00
2017-12-30T14:28:09.891Z,100.00
2017-12-30T14:30:44.679Z,100.00
2017-12-30T14:33:19.571Z,100.00
2017-12-30T14:35:54.899Z,100.00
2017-12-30T14:38:29.740Z,100.00
2017-12-30T14:41:04.863Z,100.00
2017-12-30T14:43:39.883Z,100.00
2017-12-30T14:46:15.026Z,100.00
2017-12-30T14:48:49.981Z,100.00
2017-12-30T14:51:24.990Z,100.00
2017-12-30T14:53:59.835Z,100.00
2017-12-30T14:56:34.499Z,100.00
2017-12-30T14:59:11.863Z,100.00
2017-12-30T15:01:46.274Z,100.00
2017-12-30T15:04:21.056Z,99.66
2017-12-30T15:06:56.043Z,99.12
2017-12-30T15:09:31.057Z,98.68
2017-12-30T15:12:05.927Z,97.87
2017-12-30T15:14:40.935Z,97.74
2017-12-30T15:17:15.759Z,97.48
2017-12-30T15:25:51.283Z,96.41
2017-12-30T15:28:25.985Z,96.19
2017-12-30T15:31:00.807Z,95.80
2017-12-30T15:33:35.606Z,95.79
2017-12-30T15:36:10.454Z,95.31
2017-12-30T15:38:45.287Z,94.95
2017-12-30T15:41:20.070Z,94.58
2017-12-30T15:43:55.008Z,94.36
2017-12-30T15:46:29.803Z,94.14
2017-12-30T15:49:04.590Z,93.49
2017-12-30T15:51:39.460Z,92.99
2017-12-30T15:54:14.150Z,92.46
2017-12-30T15:56:48.707Z,92.05
2017-12-30T15:59:23.658Z,91.75
2017-12-30T16:01:58.462Z,91.41
2017-12-30T16:04:33.258Z,91.25
2017-12-30T16:07:08.217Z,91.36
2017-12-30T16:09:43.107Z,91.34
2017-12-30T16:12:17.982Z,91.70
2017-12-30T16:14:52.747Z,91.72
2017-12-30T16:17:27.543Z,91.81
2017-12-30T16:20:03.430Z,91.57
2017-12-30T16:22:38.028Z,91.85
2017-12-30T16:25:12.425Z,92.07
2017-12-30T16:27:47.384Z,92.42
2017-12-30T16:30:21.802Z,92.58
2017-12-30T16:32:57.162Z,92.61
2017-12-30T16:35:31.838Z,92.35
2017-12-30T16:38:07.239Z,92.42
2017-12-30T16:40:42.253Z,92.04
2017-12-30T16:43:16.974Z,91.71
2017-12-30T16:45:51.733Z,90.79
2017-12-30T16:48:26.675Z,90.28
2017-12-30T16:51:01.458Z,88.86
2017-12-30T16:53:36.158Z,88.12
2017-12-30T16:56:10.927Z,87.61
2017-12-30T16:58:45.606Z,87.21
2017-12-30T17:01:20.556Z,86.94
2017-12-30T17:03:55.251Z,86.69
2017-12-30T17:06:29.481Z,86.51
2017-12-30T17:09:03.717Z,86.26
2017-12-30T17:11:39.019Z,86.50
2017-12-30T17:14:13.886Z,87.79
2017-12-30T17:16:48.723Z,89.39
2017-12-30T17:19:23.493Z,90.57
2017-12-30T17:21:58.235Z,91.80
2017-12-30T17:24:33.100Z,92.77
2017-12-30T17:27:07.578Z,93.03
2017-12-30T17:29:44.346Z,93.54
2017-12-30T17:32:19.476Z,93.68
2017-12-30T17:34:54.246Z,93.42
2017-12-30T17:37:29.168Z,93.78
2017-12-30T17:40:04.092Z,94.43
2017-12-30T17:42:39.035Z,95.25
2017-12-30T17:45:13.693Z,96.31
2017-12-30T17:47:48.370Z,97.05
2017-12-30T17:50:23.383Z,98.11
2017-12-30T17:52:58.180Z,98.41
2017-12-30T17:55:33.011Z,98.67
2017-12-30T17:58:07.935Z,98.24
2017-12-30T18:00:43.042Z,98.55
2017-12-30T18:03:18.034Z,98.67
2017-12-30T18:05:54.808Z,98.86
2017-12-30T18:08:29.790Z,98.67
2017-12-30T18:11:04.669Z,98.02
2017-12-30T18:13:39.556Z,97.68
2017-12-30T18:16:14.411Z,97.38
2017-12-30T18:18:49.436Z,97.02
2017-12-30T18:21:24.138Z,96.55
2017-12-30T18:23:59.024Z,96.02
2017-12-30T18:26:33.729Z,95.65
2017-12-30T18:29:08.667Z,95.64
2017-12-30T18:31:43.553Z,95.77
2017-12-30T18:34:18.238Z,95.95
2017-12-30T18:36:53.128Z,95.85
2017-12-30T18:39:27.989Z,95.07
2017-12-30T18:42:02.774Z,94.74
2017-12-30T18:44:37.749Z,94.12
2017-12-30T18:47:12.987Z,93.73
2017-12-30T18:49:47.674Z,93.40
2017-12-30T18:52:22.658Z,92.85
2017-12-30T18:54:57.146Z,92.76
2017-12-30T18:57:32.417Z,92.21
2017-12-30T19:00:07.427Z,92.15
2017-12-30T19:02:42.312Z,91.58
2017-12-30T19:05:17.116Z,91.32
2017-12-30T19:07:52.184Z,91.04
2017-12-30T19:10:26.975Z,90.79
2017-12-30T19:13:01.766Z,90.42
2017-12-30T19:15:36.553Z,90.37
2017-12-30T19:18:11.299Z,90.15
2017-12-30T19:20:46.083Z,89.78
2017-12-30T19:23:21.010Z,89.74
2017-12-30T19:25:55.858Z,89.35
2017-12-30T19:28:30.743Z,89.07
2017-12-30T19:31:05.497Z,88.37
2017-12-30T19:33:40.311Z,86.91
2017-12-30T19:36:15.086Z,86.59
2017-12-30T19:38:49.806Z,86.21
2017-12-30T19:41:24.659Z,86.22
2017-12-30T19:43:59.471Z,86.64
2017-12-30T19:46:34.394Z,86.86
2017-12-30T19:49:09.382Z,87.09
2017-12-30T19:51:44.191Z,87.43
2017-12-30T19:54:18.525Z,87.70
2017-12-30T19:56:53.489Z,88.02
2017-12-30T19:59:28.060Z,88.35
2017-12-30T20:02:02.820Z,88.62
2017-12-30T20:04:37.820Z,88.48
2017-12-30T20:07:12.728Z,88.51
2017-12-30T20:09:47.329Z,88.44
2017-12-30T20:12:22.463Z,88.55
2017-12-30T20:14:57.275Z,88.55
2017-12-30T20:17:32.253Z,88.73
2017-12-30T20:20:07.345Z,88.83
2017-12-30T20:22:42.057Z,88.86
2017-12-30T20:25:16.989Z,89.04
2017-12-30T20:27:51.745Z,88.93
2017-12-30T20:30:26.514Z,88.79
2017-12-30T20:33:01.175Z,89.04
2017-12-30T20:35:36.041Z,89.20
2017-12-30T20:38:10.890Z,89.26
2017-12-30T20:40:45.783Z,89.43
2017-12-30T20:43:20.434Z,89.29
2017-12-30T20:45:55.480Z,89.44
2017-12-30T20:48:30.466Z,89.46
2017-12-30T20:51:04.843Z,89.30
2017-12-30T20:53:40.055Z,89.04
2017-12-30T20:56:14.771Z,89.37
2017-12-30T20:58:49.810Z,89.41
2017-12-30T21:01:24.627Z,89.30
2017-12-30T21:03:59.518Z,89.29
2017-12-30T21:06:33.931Z,89.36
2017-12-30T21:09:08.362Z,89.14
2017-12-30T21:11:43.033Z,88.77
2017-12-30T21:14:17.962Z,88.78
2017-12-30T21:16:52.899Z,88.43
2017-12-30T21:19:27.685Z,87.53
2017-12-30T21:22:02.431Z,86.48
2017-12-30T21:24:37.448Z,85.81
2017-12-30T21:27:12.435Z,85.34
2017-12-30T21:29:47.511Z,84.81
2017-12-30T21:32:22.163Z,84.65
2017-12-30T21:34:57.119Z,83.99
2017-12-30T21:37:32.225Z,84.13
2017-12-30T21:40:07.047Z,84.58
2017-12-30T21:42:41.782Z,84.92
2017-12-30T21:45:16.450Z,84.17
2017-12-30T21:47:51.567Z,84.18
2017-12-30T21:50:26.225Z,83.87
2017-12-30T21:53:00.914Z,83.72
2017-12-30T21:55:35.858Z,83.94
2017-12-30T21:58:10.604Z,84.14
2017-12-30T22:00:45.377Z,84.44
2017-12-30T22:03:20.195Z,84.54
2017-12-30T22:05:55.274Z,84.68
2017-12-30T22:08:29.939Z,85.13
2017-12-30T22:11:04.931Z,85.42
2017-12-30T22:13:39.694Z,85.66
2017-12-30T22:16:14.612Z,85.78
2017-12-30T22:18:49.305Z,85.70
2017-12-30T22:21:24.203Z,85.79
2017-12-30T22:23:59.090Z,85.66
2017-12-30T22:26:33.945Z,85.60
2017-12-30T22:29:08.802Z,85.30
2017-12-30T22:31:43.586Z,85.14
2017-12-30T22:34:18.250Z,85.19
2017-12-30T22:36:53.437Z,84.33
2017-12-30T22:39:28.608Z,84.16
2017-12-30T22:42:03.530Z,83.52
2017-12-30T22:44:37.986Z,83.43
2017-12-30T22:47:13.086Z,82.56
2017-12-30T22:49:47.695Z,82.53
2017-12-30T22:52:22.638Z,82.50
2017-12-30T22:54:57.520Z,82.13
2017-12-30T22:57:32.559Z,82.00
2017-12-30T23:00:07.232Z,81.24
2017-12-30T23:02:41.750Z,81.38
2017-12-30T23:05:16.817Z,81.06
2017-12-30T23:07:51.564Z,80.37
2017-12-30T23:10:26.687Z,80.27
2017-12-30T23:13:01.306Z,80.13
2017-12-30T23:15:36.124Z,80.05
2017-12-30T23:18:11.179Z,80.24
2017-12-30T23:20:45.613Z,80.26
2017-12-30T23:23:20.727Z,80.52
2017-12-30T23:25:55.345Z,80.54
2017-12-30T23:28:30.235Z,80.47
2017-12-30T23:31:05.204Z,80.53
2017-12-30T23:33:40.075Z,80.74
2017-12-30T23:36:14.887Z,80.58
2017-12-30T23:38:49.817Z,80.56
2017-12-30T23:41:24.775Z,80.23
2017-12-30T23:43:59.661Z,80.17
2017-12-30T23:46:34.527Z,80.27
2017-12-30T23:49:09.359Z,80.26
2017-12-30T23:51:43.798Z,80.31
2017-12-30T23:54:18.941Z,79.78
2017-12-30T23:56:54.030Z,79.55
2017-12-30T23:59:28.707Z,79.55
